createdAt,value
2022-08-05T00:00:25.884Z,23.32
2022-08-05T00:03:54.881Z,23.27
2022-08-05T00:08:01.041Z,23.24
2022-08-05T00:11:20.807Z,23.21
2022-08-05T00:15:54.031Z,23.16
2022-08-05T00:18:53.829Z,23.12
2022-08-05T00:22:23.327Z,23.08
2022-08-05T00:25:54.151Z,23.05
2022-08-05T00:29:25.433Z,23.00
2022-08-05T00:33:04.696Z,22.94
2022-08-05T00:37:11.022Z,22.88
2022-08-05T00:40:29.366Z,22.83
2022-08-05T00:44:00.224Z,22.76
2022-08-05T00:47:56.729Z,22.70
2022-08-05T00:51:50.513Z,22.65
2022-08-05T00:55:17.470Z,22.62
2022-08-05T00:58:53.659Z,22.59
2022-08-05T01:02:26.498Z,22.55
2022-08-05T01:05:57.674Z,22.52
2022-08-05T01:09:30.364Z,22.49
2022-08-05T01:13:13.215Z,22.44
2022-08-05T01:17:03.356Z,22.42
2022-08-05T01:20:43.314Z,22.39
2022-08-05T01:24:38.380Z,22.35
2022-08-05T01:28:39.522Z,22.30
2022-08-05T01:32:18.393Z,22.24
2022-08-05T01:35:55.610Z,22.21
2022-08-05T01:39:46.196Z,22.15
2022-08-05T01:43:21.991Z,22.12
2022-08-05T01:46:56.080Z,22.08
2022-08-05T01:50:29.682Z,22.05
2022-08-05T01:54:02.257Z,22.03
2022-08-05T01:58:10.630Z,22.00
2022-08-05T02:01:28.420Z,21.95
2022-08-05T02:05:06.212Z,21.91
2022-08-05T02:08:57.883Z,21.87
2022-08-05T02:12:37.658Z,21.82
2022-08-05T02:16:16.295Z,21.78
2022-08-05T02:19:51.189Z,21.74
2022-08-05T02:23:29.521Z,21.72
2022-08-05T02:27:10.234Z,21.70
2022-08-05T02:30:54.439Z,21.66
2022-08-05T02:34:26.353Z,21.64
2022-08-05T02:38:00.327Z,21.60
2022-08-05T02:41:43.362Z,21.57
2022-08-05T02:45:52.239Z,21.52
2022-08-05T02:49:21.790Z,21.47
2022-08-05T02:52:53.724Z,21.43
2022-08-05T02:56:28.941Z,21.38
2022-08-05T03:00:02.533Z,21.32
2022-08-05T03:04:02.568Z,21.25
2022-08-05T03:08:01.183Z,21.22
2022-08-05T03:11:55.196Z,21.17
2022-08-05T03:15:20.667Z,21.14
2022-08-05T03:18:55.411Z,21.11
2022-08-05T03:22:32.364Z,21.06
2022-08-05T03:26:31.902Z,21.02
2022-08-05T03:30:08.179Z,20.99
2022-08-05T03:33:50.916Z,20.92
2022-08-05T03:37:23.038Z,20.90
2022-08-05T03:40:57.774Z,20.88
2022-08-05T03:44:29.450Z,20.85
2022-08-05T03:48:00.940Z,20.85
2022-08-05T03:52:38.088Z,20.84
2022-08-05T03:56:05.239Z,20.85
2022-08-05T03:59:46.731Z,20.88
2022-08-05T04:03:28.938Z,20.93
2022-08-05T04:07:03.050Z,21.00
2022-08-05T04:10:38.359Z,21.07
2022-08-05T04:14:10.239Z,21.14
2022-08-05T04:17:56.142Z,21.19
2022-08-05T04:22:08.062Z,21.23
2022-08-05T04:25:57.404Z,21.25
2022-08-05T04:29:18.155Z,21.26
2022-08-05T04:32:49.717Z,21.27
2022-08-05T04:36:44.960Z,21.31
2022-08-05T04:40:13.236Z,21.33
2022-08-05T04:43:52.119Z,21.35
2022-08-05T04:47:23.056Z,21.35
2022-08-05T04:51:11.190Z,21.35
2022-08-05T04:54:45.147Z,21.35
2022-08-05T04:58:21.836Z,21.38
2022-08-05T05:02:07.947Z,21.41
2022-08-05T05:06:39.968Z,21.45
2022-08-05T05:09:35.040Z,21.46
2022-08-05T05:13:07.081Z,21.51
2022-08-05T05:16:36.835Z,21.58
2022-08-05T05:20:07.410Z,21.63
2022-08-05T05:24:01.965Z,21.69
2022-08-05T05:27:45.250Z,21.71
2022-08-05T05:31:15.500Z,21.81
2022-08-05T05:34:52.458Z,21.88
2022-08-05T05:38:27.598Z,21.95
2022-08-05T05:41:59.745Z,22.03
2022-08-05T05:45:27.805Z,22.10
2022-08-05T05:48:57.846Z,22.16
2022-08-05T05:52:38.096Z,22.24
2022-08-05T05:56:10.744Z,22.32
2022-08-05T05:59:43.377Z,22.43
2022-08-05T06:03:39.900Z,22.53
2022-08-05T06:07:08.376Z,22.62
2022-08-05T06:10:52.523Z,22.71
2022-08-05T06:14:24.286Z,22.82
2022-08-05T06:17:57.526Z,22.91
2022-08-05T06:21:35.945Z,23.01
2022-08-05T06:25:59.762Z,23.13
2022-08-05T06:29:03.688Z,23.24
2022-08-05T06:32:53.430Z,23.36
2022-08-05T06:36:25.958Z,23.46
2022-08-05T06:39:54.040Z,23.58
2022-08-05T06:43:57.440Z,23.71
2022-08-05T06:48:11.746Z,23.87
2022-08-05T06:51:09.502Z,24.01
2022-08-05T06:54:39.678Z,24.13
2022-08-05T06:58:29.565Z,24.26
2022-08-05T07:01:56.908Z,24.38
2022-08-05T07:05:36.939Z,24.51
2022-08-05T07:09:07.132Z,24.64
2022-08-05T07:12:54.934Z,24.77
2022-08-05T07:18:08.750Z,24.90
2022-08-05T07:20:37.087Z,25.08
2022-08-05T07:24:11.482Z,25.22
2022-08-05T07:27:56.356Z,25.37
2022-08-05T07:31:40.894Z,25.54
2022-08-05T07:36:02.654Z,25.72
2022-08-05T07:39:24.801Z,25.90
2022-08-05T07:42:59.372Z,26.05
2022-08-05T07:46:35.265Z,26.18
2022-08-05T07:50:06.698Z,26.30
2022-08-05T07:53:50.538Z,26.40
2022-08-05T07:57:51.248Z,26.51
2022-08-05T08:01:06.769Z,26.65
2022-08-05T08:04:41.966Z,26.78
2022-08-05T08:08:12.241Z,26.91
2022-08-05T08:11:54.231Z,27.02
2022-08-05T08:15:37.184Z,27.14
2022-08-05T08:20:00.460Z,27.26
2022-08-05T08:23:04.319Z,27.35
2022-08-05T08:26:32.122Z,27.43
2022-08-05T08:30:05.450Z,27.52
2022-08-05T08:33:51.700Z,27.65
2022-08-05T08:37:21.976Z,27.75
2022-08-05T08:40:57.084Z,27.83
2022-08-05T08:45:16.465Z,27.89
2022-08-05T08:48:36.061Z,27.99
2022-08-05T08:52:13.934Z,28.10
2022-08-05T08:56:05.090Z,28.22
2022-08-05T08:59:33.509Z,28.32
2022-08-05T09:03:07.276Z,28.42
2022-08-05T09:06:33.309Z,28.53
2022-08-05T09:10:05.579Z,28.58
2022-08-05T09:13:50.711Z,28.67
2022-08-05T09:17:42.927Z,28.76
2022-08-05T09:21:20.731Z,28.86
2022-08-05T09:25:23.902Z,28.97
2022-08-05T09:28:56.093Z,29.09
2022-08-05T09:32:51.179Z,29.19
2022-08-05T09:36:20.622Z,29.34
2022-08-05T09:39:52.716Z,29.46
2022-08-05T09:43:40.268Z,29.55
2022-08-05T09:47:15.677Z,29.61
2022-08-05T09:50:52.818Z,29.75
2022-08-05T09:54:36.704Z,29.89
2022-08-05T09:58:18.131Z,30.01
2022-08-05T10:01:48.810Z,30.11
2022-08-05T10:05:32.943Z,30.22
2022-08-05T10:09:25.108Z,30.36
2022-08-05T10:13:00.211Z,30.50
2022-08-05T10:16:37.696Z,30.59
2022-08-05T10:20:14.757Z,30.66
2022-08-05T10:23:59.799Z,30.74
2022-08-05T10:28:09.364Z,30.87
2022-08-05T10:32:54.149Z,30.97
2022-08-05T10:35:10.640Z,31.07
2022-08-05T10:38:45.068Z,31.14
2022-08-05T10:42:32.442Z,31.24
2022-08-05T10:46:10.464Z,31.31
2022-08-05T10:50:35.133Z,31.41
2022-08-05T10:54:00.989Z,31.55
2022-08-05T10:57:34.283Z,31.68
2022-08-05T11:01:11.403Z,31.79
2022-08-05T11:04:49.729Z,31.86
2022-08-05T11:08:36.553Z,31.96
2022-08-05T11:12:05.510Z,32.06
2022-08-05T11:16:00.500Z,32.11
2022-08-05T11:20:17.659Z,32.21
2022-08-05T11:24:02.907Z,32.40
2022-08-05T11:27:45.717Z,32.52
2022-08-05T11:31:58.330Z,32.66
2022-08-05T11:36:04.448Z,32.85
2022-08-05T11:40:13.996Z,33.06
2022-08-05T11:44:04.383Z,33.16
2022-08-05T11:47:49.986Z,33.29
2022-08-05T11:51:44.274Z,33.47
2022-08-05T11:55:10.451Z,33.71
2022-08-05T11:58:41.557Z,33.90
2022-08-05T12:02:30.286Z,34.08
2022-08-05T12:06:06.515Z,34.09
2022-08-05T12:09:52.846Z,34.13
2022-08-05T12:13:47.626Z,34.23
2022-08-05T12:18:00.555Z,-37.21
2022-08-05T12:21:15.164Z,1.84
2022-08-05T12:24:49.685Z,34.23
2022-08-05T12:28:33.955Z,34.21
2022-08-05T12:32:04.430Z,-1.57
2022-08-05T12:35:39.518Z,-66.48
2022-08-05T12:39:10.917Z,-37.32
2022-08-05T12:42:41.020Z,34.03
2022-08-05T12:46:29.606Z,-131.30
2022-08-05T12:50:05.335Z,-128.00
2022-08-05T12:53:37.125Z,-63.19
2022-08-05T12:57:10.862Z,-88.54
2022-08-05T13:02:02.841Z,-37.33
2022-08-05T13:04:41.659Z,-37.29
2022-08-05T13:08:22.848Z,1.79
2022-08-05T13:12:06.243Z,34.29
2022-08-05T13:15:49.193Z,18.83
2022-08-05T13:19:26.195Z,34.31
2022-08-05T13:22:56.904Z,-66.27
2022-08-05T13:26:30.270Z,34.73
2022-08-05T13:30:33.561Z,35.04
2022-08-05T13:34:21.910Z,35.45
2022-08-05T13:37:55.777Z,35.75
2022-08-05T13:41:35.872Z,36.05
2022-08-05T13:45:08.296Z,36.37
2022-08-05T13:48:58.834Z,36.65
2022-08-05T13:52:30.430Z,36.97
2022-08-05T13:56:18.177Z,37.16
2022-08-05T14:00:03.044Z,37.31
2022-08-05T14:03:38.166Z,37.51
2022-08-05T14:07:12.195Z,37.66
2022-08-05T14:10:59.646Z,37.80
2022-08-05T14:14:47.656Z,37.94
2022-08-05T14:18:23.481Z,38.13
2022-08-05T14:22:09.151Z,38.28
2022-08-05T14:25:45.155Z,38.38
2022-08-05T14:29:16.605Z,38.43
2022-08-05T14:32:47.477Z,38.45
2022-08-05T14:36:15.802Z,38.41
2022-08-05T14:39:50.120Z,38.40
2022-08-05T14:43:59.324Z,38.39
2022-08-05T14:47:14.212Z,38.35
2022-08-05T14:50:42.979Z,38.45
2022-08-05T14:54:27.638Z,38.55
2022-08-05T14:58:00.694Z,38.52
2022-08-05T15:01:48.431Z,38.46
2022-08-05T15:05:17.534Z,38.26
2022-08-05T15:08:59.822Z,38.10
2022-08-05T15:12:57.703Z,38.12
2022-08-05T15:16:20.529Z,38.19
2022-08-05T15:19:51.103Z,38.14
2022-08-05T15:23:22.536Z,38.11
2022-08-05T15:26:50.624Z,37.91
2022-08-05T15:30:19.426Z,37.70
2022-08-05T15:34:05.114Z,37.40
2022-08-05T15:38:33.779Z,37.09
2022-08-05T15:41:24.359Z,36.84
2022-08-05T15:44:52.316Z,36.66
2022-08-05T15:48:21.425Z,36.53
2022-08-05T15:52:13.305Z,36.38
2022-08-05T15:56:02.134Z,36.20
2022-08-05T15:59:31.402Z,36.01
2022-08-05T16:02:59.902Z,35.85
2022-08-05T16:06:27.809Z,35.69
2022-08-05T16:09:55.872Z,35.47
2022-08-05T16:13:34.338Z,35.29
2022-08-05T16:17:04.170Z,35.12
2022-08-05T16:20:32.425Z,34.95
2022-08-05T16:26:30.570Z,34.69
2022-08-05T16:29:58.694Z,34.52
2022-08-05T16:33:29.496Z,34.31
2022-08-05T16:38:02.976Z,34.17
2022-08-05T16:41:01.023Z,33.96
2022-08-05T16:44:30.082Z,33.82
2022-08-05T16:48:02.583Z,33.70
2022-08-05T16:51:42.348Z,33.62
2022-08-05T16:55:18.042Z,33.52
2022-08-05T16:58:48.505Z,33.44
2022-08-05T17:02:20.921Z,33.36
2022-08-05T17:05:59.517Z,33.22
2022-08-05T17:09:29.568Z,33.07
2022-08-05T17:13:03.592Z,32.95
2022-08-05T17:16:37.203Z,32.81
2022-08-05T17:20:07.401Z,32.65
2022-08-05T17:24:05.862Z,32.52
2022-08-05T17:27:26.117Z,32.35
2022-08-05T17:30:57.385Z,32.21
2022-08-05T17:34:29.581Z,32.09
2022-08-05T17:38:04.850Z,31.97
2022-08-05T17:42:20.337Z,31.84
2022-08-05T17:45:38.092Z,31.72
2022-08-05T17:49:08.941Z,31.60
2022-08-05T17:52:53.037Z,31.50
2022-08-05T17:56:28.345Z,31.41
2022-08-05T18:00:03.353Z,31.31
2022-08-05T18:04:04.028Z,31.20
2022-08-05T18:07:25.280Z,31.07
2022-08-05T18:11:03.146Z,30.96
2022-08-05T18:14:31.240Z,30.84
2022-08-05T18:18:07.772Z,30.73
2022-08-05T18:22:08.307Z,30.58
2022-08-05T18:25:35.230Z,30.40
2022-08-05T18:29:10.361Z,30.21
2022-08-05T18:32:38.993Z,30.05
2022-08-05T18:36:11.951Z,29.87
2022-08-05T18:40:34.157Z,29.71
2022-08-05T18:43:31.622Z,29.60
2022-08-05T18:47:16.889Z,29.44
2022-08-05T18:52:02.884Z,29.31
2022-08-05T18:54:50.466Z,29.19
2022-08-05T18:58:27.233Z,29.07
2022-08-05T19:01:58.776Z,28.94
2022-08-05T19:06:13.095Z,28.79
2022-08-05T19:09:18.220Z,28.61
2022-08-05T19:12:48.987Z,28.42
2022-08-05T19:16:24.568Z,28.18
2022-08-05T19:19:58.864Z,27.98
2022-08-05T19:24:05.455Z,27.82
2022-08-05T19:27:19.609Z,27.62
2022-08-05T19:30:48.970Z,27.43
2022-08-05T19:34:19.693Z,27.27
2022-08-05T19:38:06.742Z,27.15
2022-08-05T19:42:06.845Z,26.98
2022-08-05T19:45:25.513Z,26.77
2022-08-05T19:48:56.223Z,26.62
2022-08-05T19:52:30.621Z,26.50
2022-08-05T19:56:14.385Z,26.39
2022-08-05T19:59:59.409Z,26.19
2022-08-05T20:03:42.285Z,26.00
2022-08-05T20:07:13.388Z,25.84
2022-08-05T20:10:44.652Z,25.73
2022-08-05T20:14:26.612Z,25.65
2022-08-05T20:17:55.445Z,25.56
2022-08-05T20:21:25.729Z,25.51
2022-08-05T20:24:57.848Z,25.47
2022-08-05T20:28:30.086Z,25.43
2022-08-05T20:31:59.880Z,25.37
2022-08-05T20:35:27.853Z,25.29
2022-08-05T20:38:59.342Z,25.21
2022-08-05T20:42:28.245Z,25.11
2022-08-05T20:45:57.594Z,25.02
2022-08-05T20:49:28.817Z,24.89
2022-08-05T20:53:01.528Z,24.73
2022-08-05T20:56:41.924Z,24.66
2022-08-05T21:00:40.325Z,24.61
2022-08-05T21:04:09.252Z,24.60
2022-08-05T21:07:45.655Z,24.54
2022-08-05T21:12:06.543Z,24.50
2022-08-05T21:15:08.577Z,24.43
2022-08-05T21:18:45.014Z,24.34
2022-08-05T21:22:21.840Z,24.25
2022-08-05T21:25:55.433Z,24.18
2022-08-05T21:29:23.489Z,24.11
2022-08-05T21:33:05.399Z,24.07
2022-08-05T21:36:50.082Z,24.06
2022-08-05T21:40:24.032Z,24.05
2022-08-05T21:44:01.727Z,24.05
2022-08-05T21:47:55.957Z,24.05
2022-08-05T21:52:15.734Z,24.03
2022-08-05T21:55:14.890Z,23.97
2022-08-05T21:58:48.393Z,23.91
2022-08-05T22:02:26.220Z,23.86
2022-08-05T22:05:55.863Z,23.84
2022-08-05T22:09:25.159Z,23.81
2022-08-05T22:14:05.777Z,23.73
2022-08-05T22:17:10.552Z,23.65
2022-08-05T22:20:39.816Z,23.59
2022-08-05T22:24:40.053Z,23.53
2022-08-05T22:28:12.086Z,23.51
2022-08-05T22:31:44.768Z,23.50
2022-08-05T22:35:13.840Z,23.49
2022-08-05T22:38:41.199Z,23.51
2022-08-05T22:42:15.509Z,23.50
2022-08-05T22:45:53.048Z,23.45
2022-08-05T22:50:19.302Z,23.42
2022-08-05T22:53:15.949Z,23.37
2022-08-05T22:56:44.595Z,23.32
2022-08-05T23:00:20.536Z,23.25
2022-08-05T23:03:58.750Z,23.19
2022-08-05T23:07:27.708Z,23.05
2022-08-05T23:10:57.901Z,22.95
2022-08-05T23:14:32.199Z,22.86
2022-08-05T23:18:03.505Z,22.77
2022-08-05T23:21:42.784Z,22.72
2022-08-05T23:25:52.859Z,22.65
2022-08-05T23:29:07.898Z,22.57
2022-08-05T23:32:55.205Z,22.52
2022-08-05T23:36:40.235Z,22.53
2022-08-05T23:40:15.144Z,22.53
2022-08-05T23:44:04.680Z,22.52
2022-08-05T23:47:47.780Z,22.52
2022-08-05T23:51:17.520Z,22.54
2022-08-05T23:54:46.360Z,22.57
2022-08-05T23:58:31.914Z,22.57
